createdAt,value
2019-05-03T00:02:42.440Z,37.80
2019-05-03T00:05:16.833Z,35.58
2019-05-03T00:07:43.302Z,36.40
2019-05-03T00:10:12.869Z,42.33
2019-05-03T00:12:39.368Z,40.03
2019-05-03T00:15:12.108Z,37.75
2019-05-03T00:17:38.300Z,39.13
2019-05-03T00:20:05.114Z,33.58
2019-05-03T00:22:32.384Z,36.58
2019-05-03T00:25:05.923Z,33.78
2019-05-03T00:27:27.249Z,28.42
2019-05-03T00:29:53.916Z,41.02
2019-05-03T00:32:22.233Z,31.42
2019-05-03T00:37:33.751Z,38.53
2019-05-03T00:40:02.075Z,39.38
2019-05-03T00:42:28.382Z,36.48
2019-05-03T00:44:55.145Z,34.43
2019-05-03T00:47:22.271Z,42.20
2019-05-03T00:49:49.113Z,38.90
2019-05-03T00:52:15.782Z,31.70
2019-05-03T00:54:42.442Z,34.95
2019-05-03T00:57:09.052Z,49.53
2019-05-03T00:59:36.480Z,38.73
2019-05-03T01:02:03.161Z,34.60
2019-05-03T01:04:31.668Z,35.35
2019-05-03T01:06:58.032Z,34.05
2019-05-03T01:09:25.214Z,24.75
2019-05-03T01:11:52.450Z,24.87
2019-05-03T01:14:18.865Z,25.45
2019-05-03T01:16:45.413Z,28.73
2019-05-03T01:19:12.162Z,24.57
2019-05-03T01:21:38.693Z,21.25
2019-05-03T01:24:05.462Z,24.40
2019-05-03T01:26:32.057Z,25.90
2019-05-03T01:28:58.633Z,25.45
2019-05-03T01:31:25.244Z,22.25
2019-05-03T01:33:52.097Z,24.02
2019-05-03T01:36:18.517Z,22.60
2019-05-03T01:38:44.752Z,27.87
2019-05-03T01:41:12.318Z,27.77
2019-05-03T01:43:39.262Z,26.70
2019-05-03T01:46:05.920Z,26.40
2019-05-03T01:48:34.425Z,29.67
2019-05-03T01:51:17.777Z,27.35
2019-05-03T01:53:44.245Z,25.27
2019-05-03T01:56:11.824Z,21.07
2019-05-03T01:58:38.370Z,26.10
2019-05-03T02:01:06.990Z,25.92
2019-05-03T02:03:52.889Z,23.67
2019-05-03T02:06:19.157Z,35.98
2019-05-03T02:08:45.809Z,29.37
2019-05-03T02:11:12.520Z,33.70
2019-05-03T02:13:39.238Z,36.33
2019-05-03T02:16:05.688Z,30.82
2019-05-03T02:18:31.944Z,28.05
2019-05-03T02:20:58.177Z,25.77
2019-05-03T02:23:24.793Z,26.62
2019-05-03T02:25:56.799Z,26.57
2019-05-03T02:28:19.711Z,27.27
2019-05-03T02:30:46.347Z,27.42
2019-05-03T02:33:13.406Z,26.95
2019-05-03T02:35:43.028Z,28.80
2019-05-03T02:38:09.653Z,25.95
2019-05-03T02:40:36.290Z,27.85
2019-05-03T02:43:05.526Z,27.70
2019-05-03T02:45:35.168Z,27.98
2019-05-03T02:48:20.845Z,29.10
2019-05-03T02:50:47.318Z,26.80
2019-05-03T02:53:15.681Z,29.45
2019-05-03T02:55:42.218Z,29.37
2019-05-03T02:58:08.485Z,34.23
2019-05-03T03:01:00.744Z,38.30
2019-05-03T03:03:28.153Z,31.25
2019-05-03T03:05:56.564Z,33.10
2019-05-03T03:08:45.934Z,46.90
2019-05-03T03:11:16.249Z,41.23
2019-05-03T03:13:45.778Z,34.60
2019-05-03T03:16:15.614Z,34.92
2019-05-03T03:18:40.975Z,33.83
2019-05-03T03:21:20.776Z,30.85
2019-05-03T03:24:05.895Z,34.53
2019-05-03T03:26:41.172Z,32.60
2019-05-03T03:29:06.311Z,37.88
2019-05-03T03:31:48.208Z,35.55
2019-05-03T03:34:18.228Z,31.68
2019-05-03T03:36:59.257Z,33.25
2019-05-03T03:39:16.417Z,40.73
2019-05-03T03:41:45.354Z,35.50
2019-05-03T03:44:15.158Z,39.27
2019-05-03T03:46:45.294Z,35.13
2019-05-03T03:51:39.944Z,48.80
2019-05-03T03:54:10.260Z,42.17
2019-05-03T03:56:54.529Z,43.58
2019-05-03T03:59:08.094Z,38.80
2019-05-03T04:01:35.046Z,47.03
2019-05-03T04:04:01.668Z,43.13
2019-05-03T04:06:40.875Z,43.73
2019-05-03T04:09:07.292Z,36.27
2019-05-03T04:11:35.031Z,30.85
2019-05-03T04:14:05.251Z,45.30
2019-05-03T04:16:33.073Z,40.70
2019-05-03T04:19:01.452Z,39.88
2019-05-03T04:21:27.876Z,33.42
2019-05-03T04:23:55.827Z,33.65
2019-05-03T04:26:22.413Z,39.63
2019-05-03T04:28:49.035Z,41.73
2019-05-03T04:31:15.761Z,41.40
2019-05-03T04:33:42.120Z,58.75
2019-05-03T04:36:08.761Z,37.78
2019-05-03T04:38:35.687Z,38.53
2019-05-03T04:41:02.069Z,33.78
2019-05-03T04:43:28.695Z,41.63
2019-05-03T04:46:09.104Z,27.15
2019-05-03T04:48:35.945Z,25.75
2019-05-03T04:51:05.933Z,24.57
2019-05-03T04:53:35.582Z,25.77
2019-05-03T04:56:01.517Z,31.80
2019-05-03T04:58:28.157Z,34.63
2019-05-03T05:00:55.379Z,28.07
2019-05-03T05:03:21.849Z,29.02
2019-05-03T05:05:48.497Z,35.40
2019-05-03T05:08:16.284Z,30.85
2019-05-03T05:10:45.206Z,30.68
2019-05-03T05:13:11.253Z,29.92
2019-05-03T05:15:37.646Z,28.67
2019-05-03T05:18:15.986Z,39.30
2019-05-03T05:20:45.396Z,38.78
2019-05-03T05:23:11.705Z,29.12
2019-05-03T05:25:44.498Z,30.50
2019-05-03T05:28:18.768Z,33.67
2019-05-03T05:30:45.189Z,38.50
2019-05-03T05:33:20.726Z,32.38
2019-05-03T05:35:48.556Z,30.92
2019-05-03T05:38:15.052Z,39.48
2019-05-03T05:40:41.573Z,37.48
2019-05-03T05:43:08.318Z,32.03
2019-05-03T05:45:34.946Z,29.18
2019-05-03T05:48:12.184Z,33.42
2019-05-03T05:50:40.331Z,26.12
2019-05-03T05:53:06.629Z,28.30
2019-05-03T05:55:51.575Z,34.58
2019-05-03T05:58:19.688Z,34.53
2019-05-03T06:00:50.690Z,31.93
2019-05-03T06:03:17.908Z,31.10
2019-05-03T06:05:44.707Z,17.60
2019-05-03T06:08:25.317Z,28.40
2019-05-03T06:10:55.324Z,21.87
2019-05-03T06:13:26.485Z,30.25
2019-05-03T06:15:54.859Z,28.00
2019-05-03T06:18:25.046Z,28.10
2019-05-03T06:21:09.996Z,36.50
2019-05-03T06:23:50.153Z,18.10
2019-05-03T06:26:34.983Z,31.12
2019-05-03T06:29:04.479Z,26.35
2019-05-03T06:31:35.372Z,23.47
2019-05-03T06:34:01.840Z,26.02
2019-05-03T06:36:27.971Z,19.65
2019-05-03T06:38:54.739Z,22.37
2019-05-03T06:41:21.054Z,11.78
2019-05-03T06:43:48.592Z,19.02
2019-05-03T06:46:18.161Z,19.05
2019-05-03T06:48:44.392Z,27.98
2019-05-03T06:51:14.787Z,16.25
2019-05-03T06:53:41.790Z,16.82
2019-05-03T06:56:06.745Z,14.98
2019-05-03T06:58:34.266Z,15.70
2019-05-03T07:01:05.937Z,16.55
2019-05-03T07:03:39.868Z,11.38
2019-05-03T07:06:11.148Z,13.45
2019-05-03T07:08:44.834Z,16.25
2019-05-03T07:11:10.484Z,17.17
2019-05-03T07:13:36.692Z,9.88
2019-05-03T07:16:04.691Z,13.18
2019-05-03T07:18:31.189Z,11.90
2019-05-03T07:20:58.356Z,17.30
2019-05-03T07:23:24.771Z,9.28
2019-05-03T07:25:51.200Z,13.05
2019-05-03T07:28:17.348Z,8.60
2019-05-03T07:30:45.419Z,10.78
2019-05-03T07:33:31.731Z,19.77
2019-05-03T07:35:57.942Z,9.80
2019-05-03T07:38:24.952Z,11.88
2019-05-03T07:40:51.496Z,14.07
2019-05-03T07:43:18.954Z,14.60
2019-05-03T07:45:45.452Z,14.13
2019-05-03T07:48:11.697Z,15.25
2019-05-03T07:50:37.832Z,15.78
2019-05-03T07:53:04.624Z,12.33
2019-05-03T07:55:51.101Z,10.55
2019-05-03T07:58:35.106Z,9.08
2019-05-03T08:01:08.899Z,8.18
2019-05-03T08:03:32.063Z,14.23
2019-05-03T08:05:58.278Z,12.98
2019-05-03T08:08:25.035Z,17.65
2019-05-03T08:10:51.772Z,11.43
2019-05-03T08:13:18.593Z,17.65
2019-05-03T08:15:45.287Z,14.73
2019-05-03T08:18:12.085Z,14.85
2019-05-03T08:20:38.347Z,10.80
2019-05-03T08:23:05.260Z,13.18
2019-05-03T08:25:31.804Z,15.40
2019-05-03T08:27:58.108Z,10.85
2019-05-03T08:30:44.455Z,10.58
2019-05-03T08:33:14.716Z,21.48
2019-05-03T08:38:10.564Z,17.40
2019-05-03T08:40:38.734Z,19.50
2019-05-03T08:43:05.254Z,10.65
2019-05-03T08:45:31.608Z,13.22
2019-05-03T08:47:57.823Z,13.08
2019-05-03T08:50:25.689Z,13.08
2019-05-03T08:52:52.116Z,13.80
2019-05-03T08:55:18.347Z,11.70
2019-05-03T08:57:45.029Z,23.15
2019-05-03T09:00:16.857Z,18.62
2019-05-03T09:02:44.721Z,16.37
2019-05-03T09:05:12.326Z,14.70
2019-05-03T09:07:38.676Z,13.98
2019-05-03T09:10:12.562Z,17.67
2019-05-03T09:12:57.125Z,13.75
2019-05-03T09:15:24.635Z,12.10
2019-05-03T09:17:51.116Z,11.68
2019-05-03T09:20:17.439Z,15.32
2019-05-03T09:22:45.294Z,13.98
2019-05-03T09:25:15.311Z,14.68
2019-05-03T09:27:41.132Z,24.20
2019-05-03T09:30:07.496Z,16.67
2019-05-03T09:32:35.022Z,15.08
2019-05-03T09:35:05.521Z,18.42
2019-05-03T09:39:57.679Z,12.40
2019-05-03T09:42:24.774Z,12.65
2019-05-03T09:44:52.593Z,16.87
2019-05-03T09:47:18.956Z,15.85
2019-05-03T09:49:45.487Z,17.62
2019-05-03T09:52:11.870Z,15.03
2019-05-03T09:54:40.022Z,13.13
2019-05-03T09:57:06.273Z,9.90
2019-05-03T09:59:32.503Z,12.65
2019-05-03T10:01:59.277Z,14.53
2019-05-03T10:04:25.686Z,11.12
2019-05-03T10:06:51.994Z,14.07
2019-05-03T10:09:18.280Z,13.30
2019-05-03T10:11:45.885Z,12.88
2019-05-03T10:14:12.813Z,15.30
2019-05-03T10:16:44.827Z,13.32
2019-05-03T10:19:14.307Z,11.38
2019-05-03T10:21:41.865Z,8.48
2019-05-03T10:24:08.138Z,14.03
2019-05-03T10:26:35.608Z,10.82
2019-05-03T10:29:02.083Z,14.58
2019-05-03T10:31:30.252Z,12.60
2019-05-03T10:34:05.574Z,11.83
2019-05-03T10:36:31.762Z,8.45
2019-05-03T10:38:58.139Z,9.05
2019-05-03T10:41:25.087Z,11.12
2019-05-03T10:43:51.742Z,12.70
2019-05-03T10:46:17.987Z,19.55
2019-05-03T10:48:45.128Z,10.65
2019-05-03T10:51:11.563Z,12.28
2019-05-03T10:53:39.824Z,12.75
2019-05-03T10:56:14.834Z,12.40
2019-05-03T10:58:45.321Z,11.97
2019-05-03T11:03:38.429Z,10.55
2019-05-03T11:06:05.489Z,15.40
2019-05-03T11:08:32.026Z,13.43
2019-05-03T11:10:58.358Z,12.30
2019-05-03T11:13:26.430Z,15.75
2019-05-03T11:15:54.825Z,17.12
2019-05-03T11:18:20.804Z,12.73
2019-05-03T11:20:47.080Z,16.40
2019-05-03T11:23:14.596Z,17.35
2019-05-03T11:25:41.392Z,11.30
2019-05-03T11:28:15.302Z,15.32
2019-05-03T11:30:53.584Z,12.68
2019-05-03T11:33:15.358Z,16.03
2019-05-03T11:35:44.661Z,16.52
2019-05-03T11:38:16.114Z,13.93
2019-05-03T11:40:42.366Z,16.77
2019-05-03T11:43:08.921Z,15.03
2019-05-03T11:45:35.488Z,16.45
2019-05-03T11:48:03.012Z,15.55
2019-05-03T11:50:29.257Z,16.23
2019-05-03T11:52:55.559Z,12.53
2019-05-03T11:55:21.797Z,16.07
2019-05-03T11:57:48.103Z,13.98
2019-05-03T12:00:18.269Z,21.37
2019-05-03T12:02:49.224Z,10.60
2019-05-03T12:05:17.465Z,14.53
2019-05-03T12:07:45.514Z,21.75
2019-05-03T12:10:20.619Z,9.58
2019-05-03T12:12:58.061Z,11.60
2019-05-03T12:15:24.397Z,17.05
2019-05-03T12:17:57.921Z,10.03
2019-05-03T12:20:21.860Z,10.82
2019-05-03T12:22:49.396Z,10.35
2019-05-03T12:25:17.413Z,10.65
2019-05-03T12:27:44.552Z,7.40
2019-05-03T12:30:12.390Z,5.87
2019-05-03T12:32:38.609Z,10.55
2019-05-03T12:35:06.146Z,9.55
2019-05-03T12:37:34.919Z,6.50
2019-05-03T12:40:01.979Z,6.80
2019-05-03T12:42:28.230Z,5.12
2019-05-03T12:44:55.150Z,4.40
2019-05-03T12:47:22.343Z,12.47
2019-05-03T12:49:48.975Z,5.75
2019-05-03T12:52:16.498Z,5.53
2019-05-03T12:54:43.270Z,6.83
2019-05-03T12:57:10.218Z,9.80
2019-05-03T12:59:56.421Z,10.05
2019-05-03T13:02:39.800Z,7.92
2019-05-03T13:05:06.232Z,6.58
2019-05-03T13:07:40.284Z,11.80
2019-05-03T13:10:07.313Z,10.88
2019-05-03T13:12:34.727Z,11.25
2019-05-03T13:15:01.198Z,7.47
2019-05-03T13:17:35.304Z,6.40
2019-05-03T13:20:15.182Z,9.03
2019-05-03T13:25:09.245Z,6.50
2019-05-03T13:27:35.661Z,13.08
2019-05-03T13:30:07.884Z,8.38
2019-05-03T13:32:34.960Z,7.15
2019-05-03T13:35:01.548Z,9.95
2019-05-03T13:37:27.782Z,10.20
2019-05-03T13:39:55.406Z,8.90
2019-05-03T13:42:22.070Z,12.50
2019-05-03T13:44:48.281Z,18.95
2019-05-03T13:47:14.988Z,12.07
2019-05-03T13:49:41.581Z,11.22
2019-05-03T13:52:07.829Z,7.40
2019-05-03T13:54:34.977Z,10.75
2019-05-03T13:57:01.485Z,9.48
2019-05-03T13:59:27.713Z,16.25
2019-05-03T14:01:54.578Z,18.00
2019-05-03T14:04:20.994Z,7.78
2019-05-03T14:06:47.342Z,9.53
2019-05-03T14:09:13.576Z,6.65
2019-05-03T14:11:39.794Z,7.33
2019-05-03T14:14:06.054Z,7.60
2019-05-03T14:16:33.361Z,10.60
2019-05-03T14:19:01.536Z,6.78
2019-05-03T14:21:29.660Z,6.92
2019-05-03T14:24:11.798Z,12.60
2019-05-03T14:26:39.918Z,19.27
2019-05-03T14:29:06.869Z,14.38
2019-05-03T14:31:34.636Z,5.37
2019-05-03T14:34:01.336Z,13.25
2019-05-03T14:36:27.592Z,12.10
2019-05-03T14:38:54.839Z,12.35
2019-05-03T14:41:21.640Z,8.65
2019-05-03T14:43:47.956Z,11.12
2019-05-03T14:46:15.062Z,15.32
2019-05-03T14:48:42.332Z,8.95
2019-05-03T14:51:08.464Z,10.80
2019-05-03T14:53:34.939Z,7.37
2019-05-03T14:59:16.701Z,10.32
2019-05-03T15:01:47.606Z,7.37
2019-05-03T15:04:15.157Z,12.70
2019-05-03T15:06:41.506Z,10.08
2019-05-03T15:09:07.929Z,8.28
2019-05-03T15:11:34.562Z,12.10
2019-05-03T15:14:01.305Z,9.25
2019-05-03T15:16:27.520Z,8.20
2019-05-03T15:18:54.865Z,6.97
2019-05-03T15:21:21.321Z,12.10
2019-05-03T15:23:47.557Z,8.33
2019-05-03T15:26:13.813Z,8.38
2019-05-03T15:28:40.037Z,10.68
2019-05-03T15:31:06.284Z,10.95
2019-05-03T15:33:32.511Z,6.45
2019-05-03T15:35:58.764Z,10.43
2019-05-03T15:38:24.984Z,7.17
2019-05-03T15:40:51.569Z,15.63
2019-05-03T15:43:22.514Z,15.43
2019-05-03T15:46:02.639Z,10.00
2019-05-03T15:48:30.780Z,6.97
2019-05-03T15:50:57.007Z,6.92
2019-05-03T15:53:24.689Z,8.65
2019-05-03T15:55:51.186Z,9.33
2019-05-03T15:58:17.437Z,10.80
2019-05-03T16:00:44.533Z,5.78
2019-05-03T16:03:11.459Z,8.05
2019-05-03T16:05:37.775Z,12.60
2019-05-03T16:08:04.631Z,15.38
2019-05-03T16:10:31.250Z,6.78
2019-05-03T16:12:57.564Z,8.60
2019-05-03T16:15:24.582Z,8.65
2019-05-03T16:17:51.250Z,10.10
2019-05-03T16:20:17.750Z,9.23
2019-05-03T16:22:45.030Z,14.75
2019-05-03T16:25:12.112Z,12.75
2019-05-03T16:27:40.269Z,10.20
2019-05-03T16:30:26.047Z,11.40
2019-05-03T16:32:52.270Z,13.60
2019-05-03T16:35:18.524Z,11.03
2019-05-03T16:37:45.239Z,9.25
2019-05-03T16:40:11.885Z,8.08
2019-05-03T16:42:38.103Z,11.60
2019-05-03T16:45:05.571Z,9.48
2019-05-03T16:47:32.192Z,11.33
2019-05-03T16:49:58.405Z,11.75
2019-05-03T16:52:25.670Z,12.68
2019-05-03T16:54:52.068Z,17.57
2019-05-03T16:57:18.326Z,12.90
2019-05-03T16:59:45.807Z,12.65
2019-05-03T17:02:12.090Z,9.85
2019-05-03T17:04:40.286Z,10.15
2019-05-03T17:07:08.435Z,9.35
2019-05-03T17:09:40.553Z,8.85
2019-05-03T17:12:11.872Z,10.98
2019-05-03T17:14:38.079Z,14.60
2019-05-03T17:17:04.634Z,7.83
2019-05-03T17:19:32.524Z,12.47
2019-05-03T17:21:58.744Z,12.25
2019-05-03T17:24:25.009Z,6.25
2019-05-03T17:26:51.248Z,11.33
2019-05-03T17:29:17.475Z,12.47
2019-05-03T17:31:44.490Z,8.00
2019-05-03T17:34:10.994Z,8.95
2019-05-03T17:36:37.238Z,6.80
2019-05-03T17:39:07.292Z,8.73
2019-05-03T17:44:24.313Z,11.25
2019-05-03T17:46:50.541Z,11.73
2019-05-03T17:49:17.074Z,6.45
2019-05-03T17:51:55.449Z,9.25
2019-05-03T17:54:26.403Z,10.38
2019-05-03T17:56:55.122Z,8.73
2019-05-03T17:59:24.428Z,7.72
2019-05-03T18:02:09.488Z,14.45
2019-05-03T18:04:43.565Z,9.90
2019-05-03T18:07:30.506Z,9.33
2019-05-03T18:09:58.805Z,7.62
2019-05-03T18:12:25.032Z,20.32
2019-05-03T18:14:51.181Z,11.33
2019-05-03T18:17:17.677Z,7.12
2019-05-03T18:19:44.836Z,8.13
2019-05-03T18:22:11.491Z,12.93
2019-05-03T18:24:37.732Z,7.95
2019-05-03T18:27:04.299Z,10.08
2019-05-03T18:29:30.514Z,12.53
2019-05-03T18:31:56.728Z,13.43
2019-05-03T18:34:24.961Z,12.00
2019-05-03T18:36:51.009Z,9.48
2019-05-03T18:39:17.432Z,7.97
2019-05-03T18:41:45.191Z,16.00
2019-05-03T18:44:14.818Z,9.70
2019-05-03T18:46:46.109Z,9.78
2019-05-03T18:49:12.425Z,21.07
2019-05-03T18:51:38.787Z,12.68
2019-05-03T18:54:07.243Z,7.55
2019-05-03T18:56:34.697Z,8.98
2019-05-03T18:59:02.241Z,14.63
2019-05-03T19:01:28.637Z,14.80
2019-05-03T19:03:56.773Z,24.98
2019-05-03T19:06:23.243Z,10.90
2019-05-03T19:09:06.335Z,12.18
2019-05-03T19:11:37.282Z,10.70
2019-05-03T19:14:15.035Z,10.68
2019-05-03T19:16:46.224Z,15.63
2019-05-03T19:19:15.173Z,10.68
2019-05-03T19:21:41.527Z,17.10
2019-05-03T19:24:07.786Z,11.18
2019-05-03T19:26:35.293Z,19.48
2019-05-03T19:29:01.816Z,20.30
2019-05-03T19:31:27.961Z,14.13
2019-05-03T19:33:55.078Z,10.72
2019-05-03T19:36:21.983Z,12.15
2019-05-03T19:38:48.439Z,15.05
2019-05-03T19:41:16.316Z,13.48
2019-05-03T19:43:44.459Z,13.70
2019-05-03T19:46:11.249Z,8.88
2019-05-03T19:48:37.817Z,17.10
2019-05-03T19:51:05.737Z,13.25
2019-05-03T19:53:35.951Z,17.42
2019-05-03T19:58:28.872Z,12.25
2019-05-03T20:01:14.803Z,13.60
2019-05-03T20:03:43.235Z,9.85
2019-05-03T20:06:17.109Z,10.13
2019-05-03T20:08:48.000Z,11.68
2019-05-03T20:11:15.344Z,16.00
2019-05-03T20:13:44.963Z,16.77
2019-05-03T20:16:10.979Z,11.53
2019-05-03T20:18:37.281Z,16.82
2019-05-03T20:21:04.379Z,12.82
2019-05-03T20:23:30.885Z,10.38
2019-05-03T20:25:57.105Z,16.45
2019-05-03T20:28:24.741Z,12.50
2019-05-03T20:30:51.205Z,9.88
2019-05-03T20:33:17.465Z,15.50
2019-05-03T20:35:45.162Z,17.75
2019-05-03T20:38:11.868Z,11.80
2019-05-03T20:40:38.089Z,12.53
2019-05-03T20:43:11.978Z,16.42
2019-05-03T20:45:44.541Z,21.17
2019-05-03T20:48:15.927Z,13.58
2019-05-03T20:50:42.204Z,14.93
2019-05-03T20:53:08.425Z,14.87
2019-05-03T20:55:34.844Z,13.85
2019-05-03T20:58:01.389Z,13.03
2019-05-03T21:00:27.541Z,16.35
2019-05-03T21:02:57.178Z,15.85
2019-05-03T21:05:29.538Z,14.70
2019-05-03T21:07:50.496Z,17.82
2019-05-03T21:10:17.265Z,14.70
2019-05-03T21:12:43.523Z,14.47
2019-05-03T21:15:15.535Z,16.82
2019-05-03T21:17:52.460Z,26.35
2019-05-03T21:20:38.896Z,19.10
2019-05-03T21:23:07.422Z,17.42
2019-05-03T21:26:05.103Z,20.75
2019-05-03T21:28:12.601Z,17.27
2019-05-03T21:30:38.912Z,17.30
2019-05-03T21:33:05.472Z,17.40
2019-05-03T21:35:40.849Z,14.78
2019-05-03T21:38:00.520Z,16.90
2019-05-03T21:40:26.880Z,13.38
2019-05-03T21:42:54.585Z,15.68
2019-05-03T21:45:24.690Z,12.78
2019-05-03T21:47:54.739Z,13.65
2019-05-03T21:50:22.084Z,15.90
2019-05-03T21:52:48.494Z,16.82
2019-05-03T21:55:15.148Z,17.90
2019-05-03T21:57:41.764Z,16.17
2019-05-03T22:00:10.531Z,16.62
2019-05-03T22:02:37.381Z,14.68
2019-05-03T22:05:04.852Z,12.13
2019-05-03T22:07:31.088Z,17.60
2019-05-03T22:09:57.460Z,18.90
2019-05-03T22:12:24.887Z,17.30
2019-05-03T22:14:54.505Z,28.45
2019-05-03T22:17:39.703Z,32.63
2019-05-03T22:20:08.248Z,16.50
2019-05-03T22:22:36.566Z,26.40
2019-05-03T22:25:29.777Z,18.90
2019-05-03T22:27:56.335Z,20.95
2019-05-03T22:30:24.311Z,19.82
2019-05-03T22:32:51.366Z,18.48
2019-05-03T22:35:17.876Z,21.95
2019-05-03T22:37:44.675Z,22.90
2019-05-03T22:40:11.145Z,20.17
2019-05-03T22:42:37.400Z,20.15
2019-05-03T22:45:04.931Z,22.02
2019-05-03T22:47:31.517Z,23.27
2019-05-03T22:49:58.111Z,21.68
2019-05-03T22:52:25.756Z,26.85
2019-05-03T22:54:52.196Z,28.87
2019-05-03T22:57:18.443Z,33.23
2019-05-03T22:59:45.135Z,23.98
2019-05-03T23:02:11.716Z,23.05
2019-05-03T23:04:37.993Z,12.95
2019-05-03T23:07:05.570Z,12.78
2019-05-03T23:09:32.111Z,16.77
2019-05-03T23:11:58.713Z,13.68
2019-05-03T23:14:25.719Z,15.50
2019-05-03T23:16:52.404Z,21.35
2019-05-03T23:19:19.016Z,19.95
2019-05-03T23:21:47.181Z,24.32
2019-05-03T23:24:15.321Z,18.37
2019-05-03T23:26:41.556Z,20.68
2019-05-03T23:29:08.864Z,22.62
2019-05-03T23:31:35.472Z,19.20
2019-05-03T23:34:01.724Z,25.70
2019-05-03T23:36:33.440Z,22.55
2019-05-03T23:38:56.657Z,16.07
2019-05-03T23:41:24.561Z,8.83
2019-05-03T23:43:51.171Z,14.35
2019-05-03T23:46:19.660Z,15.75
2019-05-03T23:48:46.038Z,16.52
2019-05-03T23:51:14.929Z,11.35
2019-05-03T23:53:41.371Z,6.42
2019-05-03T23:56:21.584Z,13.88
2019-05-03T23:58:48.156Z,16.85
